Flight Briefing for CPX785

Departure Arrival
Tan Son Nhat International Airport (VVTS)
Click to view FAA NOTAMS
Incheon International Airport (RKSI)
Click to view FAA NOTAMS
Departure Time Arrival Time
N/A N/A
Aircraft Distance
B767-300BDSF 2216nm
Departure METAR Arrival METAR
VVTS 192330Z 09005KT 060V120 9999 FEW017 26/24 Q1014 NOSIG RKSI 192330Z 28006KT 260V340 6000 BKN040 02/M02 Q1025 NOSIG
Suggested Route
TANOS1B PTH N500 AGSAM L625 ABVAR M646 POTIB Q11 DRAKE Q11 WP900 L4 LIPLO Y741 BOLUT B576 OLMEN OLMEN1P


View recent IFR Routes data
Notes



Charts and Procedures

Charts for VVTS
No chart available
Charts for RKSI
No chart available

Ventusky Weather




{"cat":null,"equip":null,"transponder":null,"pbn":"PBN\/","maxpax":null,"oew":"0.0","mzfw":"0.0","mtow":"0.0","mlw":"0.0","maxfuel":"0.0"} DEVELOPMENTAL TEST USE ONLY